sensor_id;sensor_type;location;lat;lon;timestamp;pressure;altitude;pressure_sealevel;temperature;humidity
46942;BME280;32676;52.630;4.896;2023-05-09T00:01:12;100887.56;;;14.27;79.40
46942;BME280;32676;52.630;4.896;2023-05-09T00:03:39;100894.56;;;14.28;79.64
46942;BME280;32676;52.630;4.896;2023-05-09T00:06:06;100890.22;;;14.27;79.39
46942;BME280;32676;52.630;4.896;2023-05-09T00:08:34;100885.00;;;14.25;79.69
46942;BME280;32676;52.630;4.896;2023-05-09T00:11:02;100885.84;;;14.26;79.39
46942;BME280;32676;52.630;4.896;2023-05-09T00:13:28;100890.22;;;14.27;79.84
46942;BME280;32676;52.630;4.896;2023-05-09T00:15:55;100888.47;;;14.26;79.57
46942;BME280;32676;52.630;4.896;2023-05-09T00:18:22;100886.78;;;14.25;79.83
46942;BME280;32676;52.630;4.896;2023-05-09T00:20:48;100899.06;;;14.26;79.74
46942;BME280;32676;52.630;4.896;2023-05-09T00:23:15;100891.13;;;14.26;79.89
46942;BME280;32676;52.630;4.896;2023-05-09T00:25:43;100887.72;;;14.24;80.28
46942;BME280;32676;52.630;4.896;2023-05-09T00:28:09;100892.94;;;14.25;80.26
46942;BME280;32676;52.630;4.896;2023-05-09T00:30:36;100891.19;;;14.24;80.17
46942;BME280;32676;52.630;4.896;2023-05-09T00:33:02;100897.38;;;14.25;80.45
46942;BME280;32676;52.630;4.896;2023-05-09T00:35:28;100897.31;;;14.26;80.09
46942;BME280;32676;52.630;4.896;2023-05-09T00:37:56;100891.28;;;14.23;80.50
46942;BME280;32676;52.630;4.896;2023-05-09T00:40:22;100899.13;;;14.24;80.62
46942;BME280;32676;52.630;4.896;2023-05-09T00:42:50;100900.00;;;14.25;80.49
46942;BME280;32676;52.630;4.896;2023-05-09T00:45:16;100912.28;;;14.26;80.42
46942;BME280;32676;52.630;4.896;2023-05-09T00:47:42;100919.28;;;14.27;80.78
46942;BME280;32676;52.630;4.896;2023-05-09T00:50:09;100901.69;;;14.26;80.65
46942;BME280;32676;52.630;4.896;2023-05-09T00:52:35;100913.16;;;14.26;80.86
46942;BME280;32676;52.630;4.896;2023-05-09T00:55:02;100921.00;;;14.28;80.88
46942;BME280;32676;52.630;4.896;2023-05-09T00:57:29;100933.28;;;14.29;81.23
46942;BME280;32676;52.630;4.896;2023-05-09T00:59:56;100931.50;;;14.29;80.98
46942;BME280;32676;52.630;4.896;2023-05-09T01:02:23;100930.59;;;14.30;81.31
46942;BME280;32676;52.630;4.896;2023-05-09T01:04:49;100929.72;;;14.30;81.23
46942;BME280;32676;52.630;4.896;2023-05-09T01:07:16;100941.16;;;14.30;81.29
46942;BME280;32676;52.630;4.896;2023-05-09T01:09:45;100953.38;;;14.33;81.74
46942;BME280;32676;52.630;4.896;2023-05-09T01:12:15;100941.16;;;14.30;81.54
46942;BME280;32676;52.630;4.896;2023-05-09T01:14:47;100942.00;;;14.31;81.89
46942;BME280;32676;52.630;4.896;2023-05-09T01:17:21;100942.00;;;14.31;82.02
46942;BME280;32676;52.630;4.896;2023-05-09T01:19:59;100948.25;;;14.30;82.16
46942;BME280;32676;52.630;4.896;2023-05-09T01:22:31;100941.22;;;14.29;82.32
46942;BME280;32676;52.630;4.896;2023-05-09T01:25:06;100948.31;;;14.28;82.60
46942;BME280;32676;52.630;4.896;2023-05-09T01:27:38;100960.44;;;14.32;82.59
46942;BME280;32676;52.630;4.896;2023-05-09T01:30:10;100951.66;;;14.32;82.87
46942;BME280;32676;52.630;4.896;2023-05-09T01:32:37;100949.09;;;14.30;82.70
46942;BME280;32676;52.630;4.896;2023-05-09T01:35:04;100945.66;;;14.28;82.76
46942;BME280;32676;52.630;4.896;2023-05-09T01:37:32;100948.31;;;14.28;83.24
46942;BME280;32676;52.630;4.896;2023-05-09T01:40:03;100946.50;;;14.29;83.22
46942;BME280;32676;52.630;4.896;2023-05-09T01:42:35;100957.00;;;14.30;83.69
46942;BME280;32676;52.630;4.896;2023-05-09T01:45:03;100964.88;;;14.32;83.69
46942;BME280;32676;52.630;4.896;2023-05-09T01:47:31;100965.72;;;14.32;84.06
46942;BME280;32676;52.630;4.896;2023-05-09T01:49:59;100978.00;;;14.33;83.95
46942;BME280;32676;52.630;4.896;2023-05-09T01:52:26;100984.16;;;14.34;84.03
46942;BME280;32676;52.630;4.896;2023-05-09T01:54:54;100987.59;;;14.36;84.24
46942;BME280;32676;52.630;4.896;2023-05-09T01:57:21;100992.88;;;14.36;84.65
46942;BME280;32676;52.630;4.896;2023-05-09T01:59:48;101001.59;;;14.38;84.51
46942;BME280;32676;52.630;4.896;2023-05-09T02:02:14;101004.19;;;14.39;84.82
46942;BME280;32676;52.630;4.896;2023-05-09T02:04:42;101012.91;;;14.42;84.89
46942;BME280;32676;52.630;4.896;2023-05-09T02:07:10;101029.47;;;14.45;84.76
46942;BME280;32676;52.630;4.896;2023-05-09T02:09:36;101030.31;;;14.46;84.67
46942;BME280;32676;52.630;4.896;2023-05-09T02:12:03;101040.06;;;14.45;84.78
46942;BME280;32676;52.630;4.896;2023-05-09T02:14:29;101039.13;;;14.46;84.75
46942;BME280;32676;52.630;4.896;2023-05-09T02:16:56;101042.63;;;14.47;84.89
46942;BME280;32676;52.630;4.896;2023-05-09T02:19:22;101048.78;;;14.47;84.79
46942;BME280;32676;52.630;4.896;2023-05-09T02:21:50;101052.34;;;14.46;85.03
46942;BME280;32676;52.630;4.896;2023-05-09T02:24:16;101054.06;;;14.47;85.25
46942;BME280;32676;52.630;4.896;2023-05-09T02:26:42;101056.69;;;14.47;85.23
46942;BME280;32676;52.630;4.896;2023-05-09T02:29:09;101035.06;;;14.39;85.28
46942;BME280;32676;52.630;4.896;2023-05-09T02:31:35;101050.63;;;14.45;85.33
46942;BME280;32676;52.630;4.896;2023-05-09T02:34:04;101050.63;;;14.45;85.12
46942;BME280;32676;52.630;4.896;2023-05-09T02:36:30;101035.78;;;14.43;85.42
46942;BME280;32676;52.630;4.896;2023-05-09T02:38:59;101036.63;;;14.43;85.39
46942;BME280;32676;52.630;4.896;2023-05-09T02:41:25;101027.91;;;14.41;85.80
46942;BME280;32676;52.630;4.896;2023-05-09T02:43:52;101049.78;;;14.45;86.08
46942;BME280;32676;52.630;4.896;2023-05-09T02:46:18;101061.22;;;14.45;86.12
46942;BME280;32676;52.630;4.896;2023-05-09T02:48:45;101067.28;;;14.47;85.98
46942;BME280;32676;52.630;4.896;2023-05-09T02:51:11;101056.75;;;14.46;86.02
46942;BME280;32676;52.630;4.896;2023-05-09T02:53:38;101062.06;;;14.46;86.25
46942;BME280;32676;52.630;4.896;2023-05-09T02:56:05;101055.13;;;14.43;86.49
46942;BME280;32676;52.630;4.896;2023-05-09T02:58:32;101056.84;;;14.44;86.38
46942;BME280;32676;52.630;4.896;2023-05-09T03:00:59;101054.19;;;14.44;86.48
46942;BME280;32676;52.630;4.896;2023-05-09T03:03:25;101064.63;;;14.47;86.36
46942;BME280;32676;52.630;4.896;2023-05-09T03:05:51;101069.94;;;14.47;86.54
46942;BME280;32676;52.630;4.896;2023-05-09T03:08:17;101066.50;;;14.45;86.17
46942;BME280;32676;52.630;4.896;2023-05-09T03:10:44;101064.75;;;14.44;86.66
46942;BME280;32676;52.630;4.896;2023-05-09T03:13:13;101058.69;;;14.42;86.63
46942;BME280;32676;52.630;4.896;2023-05-09T03:15:39;101063.91;;;14.44;86.27
46942;BME280;32676;52.630;4.896;2023-05-09T03:18:05;101053.41;;;14.42;86.40
46942;BME280;32676;52.630;4.896;2023-05-09T03:20:31;101054.28;;;14.43;86.56
46942;BME280;32676;52.630;4.896;2023-05-09T03:22:58;101057.84;;;14.42;86.14
46942;BME280;32676;52.630;4.896;2023-05-09T03:25:24;101047.31;;;14.40;86.59
46942;BME280;32676;52.630;4.896;2023-05-09T03:27:51;101061.34;;;14.42;86.51
46942;BME280;32676;52.630;4.896;2023-05-09T03:30:18;101063.06;;;14.43;86.71
46942;BME280;32676;52.630;4.896;2023-05-09T03:32:45;101062.22;;;14.43;86.53
46942;BME280;32676;52.630;4.896;2023-05-09T03:35:11;101059.63;;;14.41;86.41
46942;BME280;32676;52.630;4.896;2023-05-09T03:37:37;101064.03;;;14.40;86.37
46942;BME280;32676;52.630;4.896;2023-05-09T03:40:04;101059.63;;;14.41;86.39
46942;BME280;32676;52.630;4.896;2023-05-09T03:42:31;101057.06;;;14.39;86.57
46942;BME280;32676;52.630;4.896;2023-05-09T03:44:57;101050.91;;;14.39;86.71
46942;BME280;32676;52.630;4.896;2023-05-09T03:47:25;101050.09;;;14.37;86.52
46942;BME280;32676;52.630;4.896;2023-05-09T03:49:51;101065.84;;;14.40;86.47
46942;BME280;32676;52.630;4.896;2023-05-09T03:52:18;101064.03;;;14.40;86.80
46942;BME280;32676;52.630;4.896;2023-05-09T03:54:44;101071.91;;;14.42;86.74
46942;BME280;32676;52.630;4.896;2023-05-09T03:57:11;101078.94;;;14.43;86.65
46942;BME280;32676;52.630;4.896;2023-05-09T03:59:37;101085.00;;;14.45;86.74
46942;BME280;32676;52.630;4.896;2023-05-09T04:02:03;101084.22;;;14.43;86.58
46942;BME280;32676;52.630;4.896;2023-05-09T04:04:31;101089.38;;;14.46;86.66
46942;BME280;32676;52.630;4.896;2023-05-09T04:06:57;101086.78;;;14.45;86.69
46942;BME280;32676;52.630;4.896;2023-05-09T04:09:23;101087.66;;;14.45;86.45
46942;BME280;32676;52.630;4.896;2023-05-09T04:11:50;101092.09;;;14.45;86.73
46942;BME280;32676;52.630;4.896;2023-05-09T04:14:16;101094.66;;;14.46;86.46
46942;BME280;32676;52.630;4.896;2023-05-09T04:16:42;101098.22;;;14.45;86.62
46942;BME280;32676;52.630;4.896;2023-05-09T04:19:09;101088.56;;;14.44;86.58
46942;BME280;32676;52.630;4.896;2023-05-09T04:21:36;101099.06;;;14.46;86.66
46942;BME280;32676;52.630;4.896;2023-05-09T04:24:03;101101.66;;;14.47;86.66
46942;BME280;32676;52.630;4.896;2023-05-09T04:26:29;101109.59;;;14.47;86.32
46942;BME280;32676;52.630;4.896;2023-05-09T04:28:56;101115.66;;;14.49;86.25
46942;BME280;32676;52.630;4.896;2023-05-09T04:31:22;101122.69;;;14.50;86.28
46942;BME280;32676;52.630;4.896;2023-05-09T04:33:48;101122.69;;;14.50;86.23
46942;BME280;32676;52.630;4.896;2023-05-09T04:36:15;101119.97;;;14.52;86.15
46942;BME280;32676;52.630;4.896;2023-05-09T04:38:43;101124.38;;;14.51;86.34
46942;BME280;32676;52.630;4.896;2023-05-09T04:41:09;101131.41;;;14.52;86.10
46942;BME280;32676;52.630;4.896;2023-05-09T04:43:35;101137.47;;;14.54;86.20
46942;BME280;32676;52.630;4.896;2023-05-09T04:46:02;101150.63;;;14.56;86.33
46942;BME280;32676;52.630;4.896;2023-05-09T04:48:28;101160.28;;;14.57;86.35
46942;BME280;32676;52.630;4.896;2023-05-09T04:50:55;101164.63;;;14.59;86.24
46942;BME280;32676;52.630;4.896;2023-05-09T04:53:22;101175.13;;;14.61;86.27
46942;BME280;32676;52.630;4.896;2023-05-09T04:55:50;101185.66;;;14.63;86.19
46942;BME280;32676;52.630;4.896;2023-05-09T04:58:17;101187.34;;;14.64;86.19
46942;BME280;32676;52.630;4.896;2023-05-09T05:00:43;101182.19;;;14.61;85.99
46942;BME280;32676;52.630;4.896;2023-05-09T05:03:10;101186.50;;;14.63;86.18
46942;BME280;32676;52.630;4.896;2023-05-09T05:05:36;101192.66;;;14.64;85.85
46942;BME280;32676;52.630;4.896;2023-05-09T05:08:04;101191.75;;;14.65;85.72
46942;BME280;32676;52.630;4.896;2023-05-09T05:10:30;101204.00;;;14.66;85.97
46942;BME280;32676;52.630;4.896;2023-05-09T05:12:59;101199.66;;;14.65;85.81
46942;BME280;32676;52.630;4.896;2023-05-09T05:15:25;101207.53;;;14.66;86.02
46942;BME280;32676;52.630;4.896;2023-05-09T05:17:52;101200.53;;;14.65;85.78
46942;BME280;32676;52.630;4.896;2023-05-09T05:20:18;101207.44;;;14.68;85.99
46942;BME280;32676;52.630;4.896;2023-05-09T05:22:45;101214.47;;;14.69;85.78
46942;BME280;32676;52.630;4.896;2023-05-09T05:25:11;101217.13;;;14.69;86.11
46942;BME280;32676;52.630;4.896;2023-05-09T05:27:37;101218.84;;;14.70;85.59
46942;BME280;32676;52.630;4.896;2023-05-09T05:30:06;101226.78;;;14.70;85.77
46942;BME280;32676;52.630;4.896;2023-05-09T05:32:32;101223.19;;;14.71;85.41
46942;BME280;32676;52.630;4.896;2023-05-09T05:34:59;101228.50;;;14.71;85.60
46942;BME280;32676;52.630;4.896;2023-05-09T05:37:26;101252.19;;;14.74;85.43
46942;BME280;32676;52.630;4.896;2023-05-09T05:39:52;101240.72;;;14.73;85.73
46942;BME280;32676;52.630;4.896;2023-05-09T05:42:19;101245.03;;;14.76;85.67
46942;BME280;32676;52.630;4.896;2023-05-09T05:44:45;101267.91;;;14.77;85.69
46942;BME280;32676;52.630;4.896;2023-05-09T05:47:13;101262.59;;;14.77;85.80
46942;BME280;32676;52.630;4.896;2023-05-09T05:49:39;101256.47;;;14.76;86.00
46942;BME280;32676;52.630;4.896;2023-05-09T05:52:05;101250.38;;;14.74;85.90
46942;BME280;32676;52.630;4.896;2023-05-09T05:54:32;101238.16;;;14.72;85.80
46942;BME280;32676;52.630;4.896;2023-05-09T05:56:58;101233.00;;;14.69;85.81
46942;BME280;32676;52.630;4.896;2023-05-09T05:59:26;101222.41;;;14.69;85.82
46942;BME280;32676;52.630;4.896;2023-05-09T06:01:52;101226.78;;;14.70;86.12
46942;BME280;32676;52.630;4.896;2023-05-09T06:04:21;101246.88;;;14.74;86.15
46942;BME280;32676;52.630;4.896;2023-05-09T06:06:47;101262.75;;;14.74;86.19
46942;BME280;32676;52.630;4.896;2023-05-09T06:09:13;101253.03;;;14.74;85.86
46942;BME280;32676;52.630;4.896;2023-05-09T06:11:40;101248.75;;;14.72;86.00
46942;BME280;32676;52.630;4.896;2023-05-09T06:14:06;101241.72;;;14.71;85.98
46942;BME280;32676;52.630;4.896;2023-05-09T06:16:32;101247.00;;;14.71;85.74
46942;BME280;32676;52.630;4.896;2023-05-09T06:18:58;101236.44;;;14.71;85.84
46942;BME280;32676;52.630;4.896;2023-05-09T06:21:26;101239.91;;;14.71;85.63
46942;BME280;32676;52.630;4.896;2023-05-09T06:23:52;101241.72;;;14.71;85.89
46942;BME280;32676;52.630;4.896;2023-05-09T06:26:19;101234.72;;;14.70;86.16
46942;BME280;32676;52.630;4.896;2023-05-09T06:28:46;101235.56;;;14.70;85.92
46942;BME280;32676;52.630;4.896;2023-05-09T06:31:12;101224.25;;;14.67;85.90
46942;BME280;32676;52.630;4.896;2023-05-09T06:33:39;101220.78;;;14.66;86.21
46942;BME280;32676;52.630;4.896;2023-05-09T06:36:05;101222.53;;;14.66;86.20
46942;BME280;32676;52.630;4.896;2023-05-09T06:38:33;101203.22;;;14.64;86.23
46942;BME280;32676;52.630;4.896;2023-05-09T06:41:00;101212.09;;;14.63;86.17
46942;BME280;32676;52.630;4.896;2023-05-09T06:43:27;101210.38;;;14.62;86.21
46942;BME280;32676;52.630;4.896;2023-05-09T06:45:53;101210.38;;;14.62;86.37
46942;BME280;32676;52.630;4.896;2023-05-09T06:48:20;101212.09;;;14.63;86.52
46942;BME280;32676;52.630;4.896;2023-05-09T06:50:47;101211.22;;;14.62;86.48
46942;BME280;32676;52.630;4.896;2023-05-09T06:53:14;101221.75;;;14.64;86.58
46942;BME280;32676;52.630;4.896;2023-05-09T06:55:41;101212.09;;;14.63;86.65
46942;BME280;32676;52.630;4.896;2023-05-09T06:58:08;101201.66;;;14.59;86.51
46942;BME280;32676;52.630;4.896;2023-05-09T07:00:35;101196.34;;;14.59;86.58
46942;BME280;32676;52.630;4.896;2023-05-09T07:03:01;101193.78;;;14.58;86.72
46942;BME280;32676;52.630;4.896;2023-05-09T07:05:31;101199.84;;;14.60;86.75
46942;BME280;32676;52.630;4.896;2023-05-09T07:08:01;101200.72;;;14.61;86.98
46942;BME280;32676;52.630;4.896;2023-05-09T07:10:28;101201.66;;;14.59;87.31
46942;BME280;32676;52.630;4.896;2023-05-09T07:12:55;101203.34;;;14.61;87.26
46942;BME280;32676;52.630;4.896;2023-05-09T07:15:22;101203.34;;;14.61;87.41
46942;BME280;32676;52.630;4.896;2023-05-09T07:17:48;101221.81;;;14.62;87.36
46942;BME280;32676;52.630;4.896;2023-05-09T07:20:14;101217.41;;;14.63;87.63
46942;BME280;32676;52.630;4.896;2023-05-09T07:22:41;101217.41;;;14.63;87.34
46942;BME280;32676;52.630;4.896;2023-05-09T07:25:07;101208.63;;;14.61;87.29
46942;BME280;32676;52.630;4.896;2023-05-09T07:27:34;101196.44;;;14.56;87.55
46942;BME280;32676;52.630;4.896;2023-05-09T07:30:01;101198.22;;;14.57;87.37
46942;BME280;32676;52.630;4.896;2023-05-09T07:32:28;101191.16;;;14.56;87.23
46942;BME280;32676;52.630;4.896;2023-05-09T07:34:54;101196.44;;;14.56;87.28
46942;BME280;32676;52.630;4.896;2023-05-09T07:37:20;101197.31;;;14.57;87.00
46942;BME280;32676;52.630;4.896;2023-05-09T07:39:47;101177.16;;;14.54;87.53
46942;BME280;32676;52.630;4.896;2023-05-09T07:42:13;101187.72;;;14.54;87.53
46942;BME280;32676;52.630;4.896;2023-05-09T07:44:40;101187.72;;;14.54;87.62
46942;BME280;32676;52.630;4.896;2023-05-09T07:47:07;101213.06;;;14.60;87.79
46942;BME280;32676;52.630;4.896;2023-05-09T07:49:34;101217.41;;;14.63;87.59
46942;BME280;32676;52.630;4.896;2023-05-09T07:52:00;101240.13;;;14.67;87.47
46942;BME280;32676;52.630;4.896;2023-05-09T07:54:26;101261.19;;;14.70;87.73
46942;BME280;32676;52.630;4.896;2023-05-09T07:56:53;101282.97;;;14.75;87.74
46942;BME280;32676;52.630;4.896;2023-05-09T07:59:19;101297.81;;;14.79;87.50
46942;BME280;32676;52.630;4.896;2023-05-09T08:01:45;101312.63;;;14.83;87.42
46942;BME280;32676;52.630;4.896;2023-05-09T08:04:13;101338.03;;;14.87;87.20
46942;BME280;32676;52.630;4.896;2023-05-09T08:06:40;101360.78;;;14.91;87.22
46942;BME280;32676;52.630;4.896;2023-05-09T08:09:06;101381.72;;;14.97;86.94
46942;BME280;32676;52.630;4.896;2023-05-09T08:11:32;101381.72;;;14.97;86.79
46942;BME280;32676;52.630;4.896;2023-05-09T08:14:00;101388.72;;;14.98;86.52
46942;BME280;32676;52.630;4.896;2023-05-09T08:16:26;101387.00;;;14.97;86.17
46942;BME280;32676;52.630;4.896;2023-05-09T08:18:52;101390.44;;;15.00;86.26
46942;BME280;32676;52.630;4.896;2023-05-09T08:21:20;101415.84;;;15.04;86.50
46942;BME280;32676;52.630;4.896;2023-05-09T08:23:46;101430.66;;;15.08;86.66
46942;BME280;32676;52.630;4.896;2023-05-09T08:26:13;101438.56;;;15.09;86.34
46942;BME280;32676;52.630;4.896;2023-05-09T08:28:39;101463.91;;;15.15;85.89
46942;BME280;32676;52.630;4.896;2023-05-09T08:31:05;101479.69;;;15.18;85.76
46942;BME280;32676;52.630;4.896;2023-05-09T08:33:32;101486.56;;;15.22;85.62
46942;BME280;32676;52.630;4.896;2023-05-09T08:35:58;101497.16;;;15.22;85.77
46942;BME280;32676;52.630;4.896;2023-05-09T08:38:26;101483.13;;;15.20;85.36
46942;BME280;32676;52.630;4.896;2023-05-09T08:40:52;101468.28;;;15.16;85.18
46942;BME280;32676;52.630;4.896;2023-05-09T08:43:18;101463.00;;;15.16;84.97
46942;BME280;32676;52.630;4.896;2023-05-09T08:45:49;101448.19;;;15.12;85.06
46942;BME280;32676;52.630;4.896;2023-05-09T08:48:16;101430.66;;;15.08;84.97
46942;BME280;32676;52.630;4.896;2023-05-09T08:50:43;101427.13;;;15.09;85.37
46942;BME280;32676;52.630;4.896;2023-05-09T08:53:09;101421.94;;;15.06;85.54
46942;BME280;32676;52.630;4.896;2023-05-09T08:55:37;101417.53;;;15.06;85.52
46942;BME280;32676;52.630;4.896;2023-05-09T08:58:04;101423.69;;;15.07;85.64
46942;BME280;32676;52.630;4.896;2023-05-09T09:00:31;101424.59;;;15.06;85.56
46942;BME280;32676;52.630;4.896;2023-05-09T09:02:59;101404.47;;;15.02;85.27
46942;BME280;32676;52.630;4.896;2023-05-09T09:05:26;101398.31;;;15.01;84.98
46942;BME280;32676;52.630;4.896;2023-05-09T09:07:53;101392.16;;;15.01;85.11
46942;BME280;32676;52.630;4.896;2023-05-09T09:10:20;101395.75;;;15.00;85.34
46942;BME280;32676;52.630;4.896;2023-05-09T09:12:51;101387.00;;;14.97;85.32
46942;BME280;32676;52.630;4.896;2023-05-09T09:15:18;101408.84;;;15.03;85.17
46942;BME280;32676;52.630;4.896;2023-05-09T09:17:45;101435.97;;;15.08;85.69
46942;BME280;32676;52.630;4.896;2023-05-09T09:20:13;101442.88;;;15.12;86.03
46942;BME280;32676;52.630;4.896;2023-05-09T09:22:41;101463.00;;;15.16;85.58
46942;BME280;32676;52.630;4.896;2023-05-09T09:25:08;101487.50;;;15.21;85.60
46942;BME280;32676;52.630;4.896;2023-05-09T09:27:35;101515.50;;;15.27;85.56
46942;BME280;32676;52.630;4.896;2023-05-09T09:30:06;101513.72;;;15.27;85.60
46942;BME280;32676;52.630;4.896;2023-05-09T09:32:33;101514.66;;;15.26;85.57
46942;BME280;32676;52.630;4.896;2023-05-09T09:35:03;101517.22;;;15.28;85.69
46942;BME280;32676;52.630;4.896;2023-05-09T09:37:30;101518.09;;;15.28;85.39
46942;BME280;32676;52.630;4.896;2023-05-09T09:39:58;101537.44;;;15.30;85.80
46942;BME280;32676;52.630;4.896;2023-05-09T09:42:24;101523.41;;;15.28;85.98
46942;BME280;32676;52.630;4.896;2023-05-09T09:44:55;101487.50;;;15.21;85.89
46942;BME280;32676;52.630;4.896;2023-05-09T09:47:30;101482.28;;;15.20;85.36
46942;BME280;32676;52.630;4.896;2023-05-09T09:49:57;101476.19;;;15.18;85.56
46942;BME280;32676;52.630;4.896;2023-05-09T09:52:23;101480.47;;;15.20;85.72
46942;BME280;32676;52.630;4.896;2023-05-09T09:54:50;101500.59;;;15.24;85.86
46942;BME280;32676;52.630;4.896;2023-05-09T09:57:32;101503.25;;;15.24;85.99
46942;BME280;32676;52.630;4.896;2023-05-09T09:59:58;101519.81;;;15.29;86.39
46942;BME280;32676;52.630;4.896;2023-05-09T10:02:24;101530.41;;;15.29;86.10
46942;BME280;32676;52.630;4.896;2023-05-09T10:04:52;101509.38;;;15.26;86.19
46942;BME280;32676;52.630;4.896;2023-05-09T10:07:20;101530.41;;;15.29;86.41
46942;BME280;32676;52.630;4.896;2023-05-09T10:09:47;101541.00;;;15.29;86.52
46942;BME280;32676;52.630;4.896;2023-05-09T10:12:13;101540.03;;;15.32;86.28
46942;BME280;32676;52.630;4.896;2023-05-09T10:14:43;101539.97;;;15.33;86.33
46942;BME280;32676;52.630;4.896;2023-05-09T10:17:10;101554.91;;;15.34;86.58
46942;BME280;32676;52.630;4.896;2023-05-09T10:19:38;101552.22;;;15.36;86.49
46942;BME280;32676;52.630;4.896;2023-05-09T10:22:08;101574.13;;;15.40;86.70
46942;BME280;32676;52.630;4.896;2023-05-09T10:24:38;101597.72;;;15.46;86.56
46942;BME280;32676;52.630;4.896;2023-05-09T10:27:05;101597.72;;;15.46;86.61
46942;BME280;32676;52.630;4.896;2023-05-09T10:29:35;101599.44;;;15.47;86.49
46942;BME280;32676;52.630;4.896;2023-05-09T10:32:04;101609.97;;;15.48;86.45
46942;BME280;32676;52.630;4.896;2023-05-09T10:34:34;101609.09;;;15.48;86.15
46942;BME280;32676;52.630;4.896;2023-05-09T10:37:03;101602.09;;;15.47;86.22
46942;BME280;32676;52.630;4.896;2023-05-09T10:39:30;101602.09;;;15.47;86.22
46942;BME280;32676;52.630;4.896;2023-05-09T10:41:57;101613.47;;;15.49;86.28
46942;BME280;32676;52.630;4.896;2023-05-09T10:44:25;101610.84;;;15.49;86.06
46942;BME280;32676;52.630;4.896;2023-05-09T10:46:52;101628.31;;;15.53;86.17
46942;BME280;32676;52.630;4.896;2023-05-09T10:49:19;101630.06;;;15.54;86.34
46942;BME280;32676;52.630;4.896;2023-05-09T10:51:48;101612.56;;;15.50;86.42
46942;BME280;32676;52.630;4.896;2023-05-09T10:54:24;101591.50;;;15.47;86.00
46942;BME280;32676;52.630;4.896;2023-05-09T10:56:53;101595.06;;;15.46;86.01
46942;BME280;32676;52.630;4.896;2023-05-09T10:59:32;101589.75;;;15.46;85.97
46942;BME280;32676;52.630;4.896;2023-05-09T11:01:58;101581.97;;;15.43;85.94
46942;BME280;32676;52.630;4.896;2023-05-09T11:04:27;101588.06;;;15.45;85.96
46942;BME280;32676;52.630;4.896;2023-05-09T11:06:53;101570.53;;;15.41;86.32
46942;BME280;32676;52.630;4.896;2023-05-09T11:09:27;101553.06;;;15.36;86.15
46942;BME280;32676;52.630;4.896;2023-05-09T11:11:55;101523.25;;;15.31;85.94
46942;BME280;32676;52.630;4.896;2023-05-09T11:14:28;101533.84;;;15.31;86.11
46942;BME280;32676;52.630;4.896;2023-05-09T11:16:58;101567.09;;;15.39;86.84
46942;BME280;32676;52.630;4.896;2023-05-09T11:19:35;101579.31;;;15.43;86.89
46942;BME280;32676;52.630;4.896;2023-05-09T11:22:05;101603.81;;;15.48;86.67
46942;BME280;32676;52.630;4.896;2023-05-09T11:24:36;101631.78;;;15.55;87.00
46942;BME280;32676;52.630;4.896;2023-05-09T11:27:05;101646.63;;;15.59;86.86
46942;BME280;32676;52.630;4.896;2023-05-09T11:29:41;101668.50;;;15.64;86.55
46942;BME280;32676;52.630;4.896;2023-05-09T11:32:08;101676.38;;;15.66;86.47
46942;BME280;32676;52.630;4.896;2023-05-09T11:34:38;101700.06;;;15.70;86.42
46942;BME280;32676;52.630;4.896;2023-05-09T11:37:06;101699.13;;;15.71;86.50
46942;BME280;32676;52.630;4.896;2023-05-09T11:39:34;101713.19;;;15.73;86.32
46942;BME280;32676;52.630;4.896;2023-05-09T11:42:02;101711.44;;;15.74;86.22
46942;BME280;32676;52.630;4.896;2023-05-09T11:44:31;101697.41;;;15.70;86.10
46942;BME280;32676;52.630;4.896;2023-05-09T11:46:59;101697.41;;;15.70;86.15
46942;BME280;32676;52.630;4.896;2023-05-09T11:49:26;101714.03;;;15.76;86.33
46942;BME280;32676;52.630;4.896;2023-05-09T11:51:53;101728.06;;;15.78;86.32
46942;BME280;32676;52.630;4.896;2023-05-09T11:54:22;101745.56;;;15.82;86.41
46942;BME280;32676;52.630;4.896;2023-05-09T11:56:48;101740.28;;;15.82;86.38
46942;BME280;32676;52.630;4.896;2023-05-09T11:59:14;101748.16;;;15.83;86.24
46942;BME280;32676;52.630;4.896;2023-05-09T12:01:44;101756.06;;;15.85;86.08
46942;BME280;32676;52.630;4.896;2023-05-09T12:04:10;101771.81;;;15.88;86.06
46942;BME280;32676;52.630;4.896;2023-05-09T12:06:36;101776.22;;;15.89;86.02
46942;BME280;32676;52.630;4.896;2023-05-09T12:09:03;101786.69;;;15.92;86.08
46942;BME280;32676;52.630;4.896;2023-05-09T12:11:29;101791.06;;;15.93;85.92
46942;BME280;32676;52.630;4.896;2023-05-09T12:13:56;101787.56;;;15.92;85.97
46942;BME280;32676;52.630;4.896;2023-05-09T12:16:23;101793.72;;;15.93;86.17
46942;BME280;32676;52.630;4.896;2023-05-09T12:18:51;101792.81;;;15.94;86.13
46942;BME280;32676;52.630;4.896;2023-05-09T12:21:18;101791.06;;;15.93;86.24
46942;BME280;32676;52.630;4.896;2023-05-09T12:23:44;101794.50;;;15.95;86.19
46942;BME280;32676;52.630;4.896;2023-05-09T12:26:11;101778.75;;;15.92;85.78
46942;BME280;32676;52.630;4.896;2023-05-09T12:28:37;101773.44;;;15.92;85.91
46942;BME280;32676;52.630;4.896;2023-05-09T12:31:04;101782.31;;;15.91;86.27
46942;BME280;32676;52.630;4.896;2023-05-09T12:33:30;101779.59;;;15.92;85.97
46942;BME280;32676;52.630;4.896;2023-05-09T12:36:02;101785.75;;;15.93;85.82
46942;BME280;32676;52.630;4.896;2023-05-09T12:38:29;101777.00;;;15.91;85.64
46942;BME280;32676;52.630;4.896;2023-05-09T12:40:59;101770.00;;;15.90;85.90
46942;BME280;32676;52.630;4.896;2023-05-09T12:43:28;101791.88;;;15.95;85.80
46942;BME280;32676;52.630;4.896;2023-05-09T12:45:54;101784.91;;;15.92;85.95
46942;BME280;32676;52.630;4.896;2023-05-09T12:48:22;101795.41;;;15.96;85.95
46942;BME280;32676;52.630;4.896;2023-05-09T12:50:50;101803.28;;;15.97;86.19